グアム の空港の天気 - METARとTAF

グアム国際空港 ( PGUM / GUM ) - グアム ハガニア
飛行場実況気象(Metar)
観測時間07/29 13:10 ChST (07/29 03:10 UTC)
風向・風速北 3m/s
視程10km以上
天気現象
全天の4割程度の雲 雲底高度 580m
全天の8割程度の雲 雲底高度 760m
全天の8割程度の雲 雲底高度 1310m
気温29.4℃
湿度80%
気圧1011hPa
METARPGUM 290310Z 36006KT 10SM SCT019 BKN025 BKN043 29/26 A2986 RMK AO2 T02940256
過去の天気等 Google飛行場航空写真 Wunderground天気予報

過去48時間のMETAR

飛行場予報(TAF)
発表時間: 7/29 09:36 ChST (7/28 23:36 UTC)
予報対象時間: 29日10時 ChST ~ 30日16時 ChST
風向・風速不定 3m/s
視程10km以上
天気現象周辺でしゅう雨
全天の4割程度の雲 雲底高度 550m
全天の8割程度の雲 雲底高度 3660m
29日13時 ChST ~ 29日17時 ChST に一時的に
天気現象弱いしゅう雨
全天の8割程度の雲 雲底高度 520m
PGUM 282336Z 2900/3006 VRB06KT P6SM VCSH SCT018 BKN120
TEMPO 2903/2907 -SHRA BKN017